Time;durP1;ratioP1;P1;durP2;ratioP2;P2;SDS_P1;SDS_P2;PMS_P1;PMS_P2;Temp;Humidity;BMP_temperature;BMP_pressure;BME280_temperature;BME280_humidity;BME280_pressure;Samples;Min_cycle;Max_cycle;Signal;HPM_P1;HPM_P2
2021/04/13 00:02:46;;;;;;;4.65;1.27;;;18.10;99.80;;;;;;4994073;28;20426;-71
2021/04/13 00:05:32;;;;;;;7.03;1.23;;;18.00;99.90;;;;;;4991826;28;20030;-71
2021/04/13 00:08:01;;;;;;;9.00;1.30;;;18.60;99.90;;;;;;4991559;28;20028;-70
2021/04/13 00:10:38;;;;;;;4.05;0.73;;;18.80;98.90;;;;;;4992919;28;20062;-70
2021/04/13 00:13:06;;;;;;;3.38;0.85;;;18.90;98.70;;;;;;4992310;28;20034;-70
2021/04/13 00:15:46;;;;;;;5.13;1.13;;;18.90;98.20;;;;;;4992156;28;20403;-71
2021/04/13 00:18:16;;;;;;;4.47;0.90;;;18.70;97.80;;;;;;4990933;28;20094;-71
2021/04/13 00:21:10;;;;;;;4.97;1.38;;;19.10;98.30;;;;;;4993936;28;20089;-71
2021/04/13 00:23:38;;;;;;;5.07;0.90;;;19.30;97.00;;;;;;4992111;28;20027;-71
2021/04/13 00:26:08;;;;;;;2.92;0.80;;;19.30;97.40;;;;;;4994029;28;20077;-71
2021/04/13 00:28:45;;;;;;;6.75;0.90;;;19.40;98.10;;;;;;4992292;28;20036;-71
2021/04/13 00:31:38;;;;;;;7.47;0.93;;;19.50;96.90;;;;;;4993664;28;20026;-70
2021/04/13 00:34:30;;;;;;;7.55;0.98;;;19.80;99.00;;;;;;4974438;28;20022;-71
2021/04/13 00:37:24;;;;;;;2.22;0.68;;;20.00;95.20;;;;;;4983364;28;20026;-71
2021/04/13 00:39:54;;;;;;;5.22;0.90;;;19.60;95.70;;;;;;4993284;28;20390;-71
2021/04/13 00:42:32;;;;;;;3.22;0.55;;;20.10;97.50;;;;;;4987669;28;20018;-71
2021/04/13 00:45:18;;;;;;;4.95;0.70;;;19.90;95.20;;;;;;4983054;28;20388;-71
2021/04/13 00:47:48;;;;;;;3.58;0.50;;;20.70;96.70;;;;;;4989237;28;20061;-72
2021/04/13 00:50:39;;;;;;;4.85;0.73;;;20.90;95.90;;;;;;4982796;28;20066;-71
2021/04/13 00:53:09;;;;;;;3.95;0.82;;;21.10;94.40;;;;;;4988369;28;20044;-72
2021/04/13 00:55:49;;;;;;;1.73;0.40;;;20.90;94.60;;;;;;4984498;28;20030;-71
2021/04/13 00:58:43;;;;;;;8.18;0.70;;;20.60;93.30;;;;;;4994161;28;20117;-71
2021/04/13 01:01:26;;;;;;;5.03;0.73;;;20.20;95.30;;;;;;4991989;28;20038;-71
2021/04/13 01:04:02;;;;;;;3.20;0.60;;;20.20;95.40;;;;;;4987013;28;20046;-71
2021/04/13 01:06:32;;;;;;;4.55;1.05;;;20.70;93.90;;;;;;4989538;28;20026;-70
2021/04/13 01:09:01;;;;;;;2.13;0.40;;;20.60;93.40;;;;;;4988143;28;20018;-71
2021/04/13 01:11:42;;;;;;;6.30;0.68;;;20.90;92.40;;;;;;4992341;28;20034;-71
2021/04/13 01:14:11;;;;;;;3.78;0.95;;;21.40;93.50;;;;;;4988947;28;20073;-71
2021/04/13 01:16:55;;;;;;;3.88;0.73;;;20.90;92.20;;;;;;4989346;28;20042;-71
2021/04/13 01:19:53;;;;;;;5.72;0.80;;;21.40;93.50;;;;;;4984031;28;20026;-71
2021/04/13 01:22:58;;;;;;;4.35;0.70;;;21.40;93.60;;;;;;4992349;28;20030;-71
2021/04/13 01:25:44;;;;;;;3.13;0.65;;;22.20;92.70;;;;;;5001092;28;20037;-70
2021/04/13 01:28:16;;;;;;;3.92;0.68;;;21.60;91.10;;;;;;4985761;28;20030;-71
2021/04/13 01:30:52;;;;;;;3.95;0.68;;;21.80;92.20;;;;;;4992495;28;20030;-71
2021/04/13 01:33:37;;;;;;;5.13;0.77;;;22.40;91.30;;;;;;4990142;28;20034;-71
2021/04/13 01:36:32;;;;;;;2.55;0.75;;;22.30;90.70;;;;;;4986844;28;20023;-71
2021/04/13 01:39:18;;;;;;;4.80;0.70;;;21.90;91.30;;;;;;4988313;28;20035;-71
2021/04/13 01:41:59;;;;;;;8.40;1.55;;;22.30;91.20;;;;;;4986371;28;20099;-70
2021/04/13 01:44:48;;;;;;;7.88;0.88;;;22.40;91.50;;;;;;4987309;28;20026;-71
2021/04/13 01:47:20;;;;;;;7.97;1.48;;;22.60;90.60;;;;;;4989063;28;20022;-71
2021/04/13 01:50:02;;;;;;;3.35;0.90;;;22.80;90.50;;;;;;4985818;28;20068;-71
2021/04/13 01:52:37;;;;;;;8.13;1.42;;;23.00;92.40;;;;;;4986717;28;20034;-71
2021/04/13 01:55:12;;;;;;;2.10;0.52;;;22.00;90.90;;;;;;4989271;28;20022;-71
2021/04/13 01:58:02;;;;;;;4.45;0.80;;;21.90;92.40;;;;;;4987225;28;20035;-71
2021/04/13 02:00:39;;;;;;;4.38;0.95;;;22.60;91.90;;;;;;4989435;28;20427;-71
2021/04/13 02:03:12;;;;;;;6.05;0.80;;;22.90;91.20;;;;;;4982965;28;20041;-71
2021/04/13 02:05:45;;;;;;;5.00;1.30;;;22.90;89.90;;;;;;4989375;28;20030;-70
2021/04/13 02:08:20;;;;;;;4.55;1.38;;;22.00;90.90;;;;;;5003388;28;20030;-71
2021/04/13 02:10:57;;;;;;;4.75;0.93;;;21.30;91.70;;;;;;4988889;28;20050;-70
2021/04/13 02:13:40;;;;;;;6.18;1.08;;;21.10;91.70;;;;;;4996479;28;20023;-70
2021/04/13 02:16:15;;;;;;;3.45;0.88;;;21.10;91.50;;;;;;4996202;28;20034;-68
2021/04/13 02:18:51;;;;;;;2.47;0.70;;;21.50;92.40;;;;;;4986603;28;20045;-70
2021/04/13 02:21:37;;;;;;;3.58;1.23;;;21.80;93.10;;;;;;4986648;28;20896;-70
2021/04/13 02:24:20;;;;;;;2.88;0.80;;;22.70;92.80;;;;;;4982645;28;20490;-70
2021/04/13 02:26:54;;;;;;;3.20;0.55;;;23.00;90.40;;;;;;4974279;28;20114;-71
2021/04/13 02:29:31;;;;;;;4.47;0.80;;;22.30;91.50;;;;;;4992266;28;20026;-71
2021/04/13 02:32:01;;;;;;;4.88;1.00;;;23.30;90.30;;;;;;4991506;28;20031;-71
2021/04/13 02:34:50;;;;;;;3.97;1.38;;;23.60;93.70;;;;;;4994349;28;20387;-71
2021/04/13 02:37:50;;;;;;;3.97;0.68;;;23.80;91.30;;;;;;4990824;28;20038;-72
2021/04/13 02:40:37;;;;;;;5.93;0.95;;;23.00;91.50;;;;;;4991558;28;20034;-71
2021/04/13 02:43:39;;;;;;;3.20;0.60;;;22.80;92.10;;;;;;4992545;28;20491;-72
2021/04/13 02:46:12;;;;;;;2.42;0.73;;;23.20;91.10;;;;;;4995464;28;20432;-71
2021/04/13 02:48:43;;;;;;;4.90;0.68;;;23.10;90.20;;;;;;4990172;28;20026;-70
2021/04/13 02:51:17;;;;;;;2.47;0.35;;;23.70;90.00;;;;;;4994017;28;20082;-70
2021/04/13 02:53:48;;;;;;;3.38;0.45;;;23.80;91.20;;;;;;4994672;28;20027;-70
2021/04/13 02:56:36;;;;;;;4.40;0.70;;;23.70;91.40;;;;;;4995563;28;20027;-70
2021/04/13 02:59:20;;;;;;;4.03;0.77;;;23.80;91.40;;;;;;4975877;28;20031;-71
2021/04/13 03:01:53;;;;;;;9.82;0.90;;;23.30;92.00;;;;;;4977987;28;20030;-71
2021/04/13 03:04:21;;;;;;;4.65;1.00;;;22.60;92.00;;;;;;4995350;28;20026;-71
2021/04/13 03:06:54;;;;;;;6.68;1.25;;;21.90;93.40;;;;;;4992444;28;20477;-71
2021/04/13 03:09:26;;;;;;;7.57;1.20;;;21.80;94.60;;;;;;4995112;28;20088;-71
2021/04/13 03:12:02;;;;;;;6.75;1.30;;;22.30;94.10;;;;;;4992484;28;20102;-71
2021/04/13 03:14:37;;;;;;;5.55;1.10;;;22.20;92.50;;;;;;4993531;28;20027;-71
2021/04/13 03:17:13;;;;;;;4.25;0.75;;;21.70;93.60;;;;;;4993404;28;20014;-71
2021/04/13 03:19:42;;;;;;;4.90;0.82;;;21.90;94.40;;;;;;4995110;28;20022;-71
2021/04/13 03:22:10;;;;;;;6.25;1.30;;;21.70;94.10;;;;;;4992861;28;20109;-71
2021/04/13 03:24:41;;;;;;;5.68;1.48;;;21.30;93.90;;;;;;4994653;28;20026;-70
2021/04/13 03:27:19;;;;;;;3.50;0.68;;;21.40;94.40;;;;;;4993101;28;20494;-71
2021/04/13 03:30:25;;;;;;;3.45;1.02;;;21.40;95.00;;;;;;4994979;28;20101;-70
2021/04/13 03:33:20;;;;;;;5.90;0.90;;;22.10;94.20;;;;;;4989618;28;20038;-70
2021/04/13 03:35:47;;;;;;;6.45;0.95;;;21.70;94.10;;;;;;4987207;28;20526;-71
2021/04/13 03:38:22;;;;;;;5.03;0.90;;;21.60;95.90;;;;;;4996836;28;20030;-71
2021/04/13 03:40:51;;;;;;;4.10;1.15;;;21.10;94.30;;;;;;5001028;28;20022;-71
2021/04/13 03:43:26;;;;;;;6.60;1.10;;;20.90;94.60;;;;;;4996063;28;20022;-71
2021/04/13 03:46:04;;;;;;;6.80;0.80;;;21.40;95.50;;;;;;4991214;28;20073;-70
2021/04/13 03:48:33;;;;;;;4.25;0.70;;;21.70;95.00;;;;;;4988933;28;20026;-71
2021/04/13 03:51:08;;;;;;;7.63;1.23;;;21.20;95.00;;;;;;4995592;28;20061;-70
2021/04/13 03:53:47;;;;;;;6.20;1.00;;;20.90;95.20;;;;;;4989014;28;20026;-73
2021/04/13 03:56:17;;;;;;;4.00;0.60;;;21.50;95.80;;;;;;4994618;28;20102;-70
2021/04/13 03:58:54;;;;;;;7.30;1.30;;;21.20;95.20;;;;;;4987971;28;20029;-71
2021/04/13 04:01:26;;;;;;;5.22;1.35;;;20.90;95.60;;;;;;4989506;28;20109;-71
2021/04/13 04:04:05;;;;;;;4.70;0.80;;;21.10;96.70;;;;;;4989375;28;20694;-72
2021/04/13 04:06:52;;;;;;;6.70;1.02;;;21.60;95.30;;;;;;4984761;28;20026;-71
2021/04/13 04:09:31;;;;;;;6.95;0.80;;;21.10;94.80;;;;;;4992467;28;20031;-72
2021/04/13 04:12:01;;;;;;;7.97;0.70;;;21.00;95.40;;;;;;4988929;28;20018;-71
2021/04/13 04:14:31;;;;;;;5.53;0.98;;;21.00;95.30;;;;;;4990305;28;20105;-71
2021/04/13 04:17:14;;;;;;;4.72;0.70;;;21.00;96.50;;;;;;4990740;28;20114;-71
2021/04/13 04:19:53;;;;;;;6.85;1.33;;;21.50;96.40;;;;;;4993372;28;20034;-72
2021/04/13 04:22:22;;;;;;;4.25;1.10;;;21.20;95.30;;;;;;4991845;28;20113;-72
2021/04/13 04:24:51;;;;;;;8.02;1.35;;;21.00;95.40;;;;;;4994066;28;20026;-72
2021/04/13 04:27:27;;;;;;;5.68;0.80;;;20.60;96.00;;;;;;4990270;28;20035;-71
2021/04/13 04:30:30;;;;;;;7.63;1.10;;;20.40;96.20;;;;;;4990724;28;20389;-71
2021/04/13 04:33:00;;;;;;;7.20;0.90;;;20.40;96.70;;;;;;4990785;28;20030;-72
2021/04/13 04:35:46;;;;;;;7.22;1.20;;;20.40;96.50;;;;;;4993802;28;20030;-72
2021/04/13 04:38:32;;;;;;;4.45;0.85;;;20.40;97.20;;;;;;4986399;28;20424;-72
2021/04/13 04:41:08;;;;;;;8.80;1.00;;;20.40;96.60;;;;;;4981439;28;20054;-71
2021/04/13 04:44:01;;;;;;;10.48;1.00;;;20.50;96.20;;;;;;4990828;28;20040;-71
2021/04/13 04:46:42;;;;;;;6.88;1.33;;;20.60;97.50;;;;;;4985308;28;20033;-71
2021/04/13 04:49:16;;;;;;;6.93;0.90;;;20.50;96.30;;;;;;4986599;28;20061;-71
2021/04/13 04:51:48;;;;;;;5.38;1.08;;;20.40;97.30;;;;;;4989477;28;20113;-72
2021/04/13 04:54:16;;;;;;;7.10;0.60;;;20.20;97.40;;;;;;4988929;28;20044;-71
2021/04/13 04:56:43;;;;;;;4.03;0.55;;;20.30;97.10;;;;;;4991201;28;20030;-71
2021/04/13 04:59:11;;;;;;;3.95;0.68;;;20.00;97.30;;;;;;4992570;28;20470;-71
2021/04/13 05:01:38;;;;;;;5.60;0.70;;;20.00;98.30;;;;;;4991082;28;20035;-71
2021/04/13 05:04:05;;;;;;;4.55;1.17;;;20.10;97.30;;;;;;4993264;28;20018;-70
2021/04/13 05:06:33;;;;;;;5.65;1.20;;;20.20;97.80;;;;;;4990864;28;20030;-71
2021/04/13 05:09:00;;;;;;;8.38;1.40;;;20.20;98.30;;;;;;4993660;28;20390;-71
2021/04/13 05:11:28;;;;;;;5.47;0.63;;;20.10;98.00;;;;;;4991332;28;20018;-70
2021/04/13 05:13:55;;;;;;;6.88;1.15;;;20.20;97.60;;;;;;4987508;28;20026;-68
2021/04/13 05:16:23;;;;;;;5.20;0.70;;;20.20;97.30;;;;;;4991410;28;20391;-69
2021/04/13 05:18:51;;;;;;;4.15;0.93;;;20.20;97.50;;;;;;4992460;28;20057;-69
2021/04/13 05:21:18;;;;;;;7.53;1.00;;;20.20;98.00;;;;;;4991894;28;20057;-69
2021/04/13 05:23:46;;;;;;;6.72;1.00;;;20.20;97.30;;;;;;4991708;28;20031;-69
2021/04/13 05:26:13;;;;;;;3.60;0.43;;;20.10;98.00;;;;;;4993019;28;20018;-68
2021/04/13 05:28:41;;;;;;;4.43;0.68;;;20.10;97.60;;;;;;4987957;28;20037;-69
2021/04/13 05:31:08;;;;;;;8.02;1.42;;;20.20;97.80;;;;;;4992268;28;20061;-69
2021/04/13 05:33:35;;;;;;;3.42;0.40;;;20.20;98.70;;;;;;4990546;28;20065;-69
2021/04/13 05:36:04;;;;;;;3.30;0.80;;;20.10;98.00;;;;;;4992212;28;20022;-69
2021/04/13 05:38:38;;;;;;;5.85;0.80;;;20.00;98.40;;;;;;4990997;28;20037;-69
2021/04/13 05:41:08;;;;;;;4.45;1.00;;;20.00;98.60;;;;;;4984687;28;20031;-69
2021/04/13 05:43:38;;;;;;;4.65;0.47;;;20.00;98.70;;;;;;4990600;28;20026;-69
2021/04/13 05:46:06;;;;;;;3.28;0.50;;;19.80;98.80;;;;;;4989750;28;20077;-68
2021/04/13 05:48:34;;;;;;;8.85;1.25;;;19.90;98.30;;;;;;4990117;28;20022;-67
2021/04/13 05:51:01;;;;;;;8.65;1.10;;;19.80;98.70;;;;;;4992689;28;20057;-67
2021/04/13 05:53:28;;;;;;;3.42;0.75;;;19.80;99.10;;;;;;4990994;28;20113;-69
2021/04/13 05:55:56;;;;;;;5.07;1.33;;;19.80;99.20;;;;;;4992756;28;20438;-68
2021/04/13 05:58:26;;;;;;;2.75;0.50;;;19.80;99.20;;;;;;4988526;28;20038;-69
2021/04/13 06:00:56;;;;;;;8.07;0.98;;;19.80;99.20;;;;;;4990860;28;20169;-69
2021/04/13 06:03:25;;;;;;;4.20;0.63;;;19.80;99.60;;;;;;4989989;28;20411;-69
2021/04/13 06:05:56;;;;;;;7.90;0.95;;;19.80;99.90;;;;;;4990787;28;20041;-68
2021/04/13 06:08:24;;;;;;;4.93;0.68;;;19.70;99.90;;;;;;4993285;28;20034;-68
2021/04/13 06:10:53;;;;;;;4.03;0.85;;;19.60;99.70;;;;;;4994093;28;20084;-69
2021/04/13 06:13:22;;;;;;;8.65;1.92;;;19.60;99.90;;;;;;4991842;28;20030;-70
2021/04/13 06:15:50;;;;;;;5.20;0.93;;;19.50;99.90;;;;;;4994965;28;20038;-68
2021/04/13 06:18:18;;;;;;;3.25;0.40;;;19.50;99.90;;;;;;4999010;28;20490;-70
2021/04/13 06:20:46;;;;;;;3.63;0.30;;;19.50;99.90;;;;;;4995292;28;20080;-70
2021/04/13 06:23:14;;;;;;;6.68;0.85;;;19.50;99.90;;;;;;4993324;28;20410;-69
2021/04/13 06:25:41;;;;;;;11.52;1.10;;;19.30;99.90;;;;;;4990672;28;20096;-69
2021/04/13 06:28:09;;;;;;;3.83;0.63;;;19.20;99.90;;;;;;4990226;28;20072;-70
2021/04/13 06:30:40;;;;;;;3.65;0.40;;;19.20;99.90;;;;;;4999969;28;20104;-69
2021/04/13 06:33:08;;;;;;;4.43;0.60;;;19.20;99.90;;;;;;4997576;28;20483;-70
2021/04/13 06:35:36;;;;;;;3.63;0.47;;;19.10;99.90;;;;;;4994885;28;20049;-69
2021/04/13 06:38:10;;;;;;;2.95;0.52;;;19.00;99.90;;;;;;4989918;28;20121;-70
2021/04/13 06:41:14;;;;;;;7.00;0.60;;;19.00;99.90;;;;;;4991557;28;20027;-70
2021/04/13 06:44:26;;;;;;;5.15;1.48;;;19.00;99.90;;;;;;4992813;28;20473;-70
2021/04/13 06:47:24;;;;;;;3.53;0.70;;;19.00;99.90;;;;;;4990765;28;20065;-70
2021/04/13 06:50:15;;;;;;;7.15;1.23;;;18.90;99.90;;;;;;4990128;28;20125;-70
2021/04/13 06:53:02;;;;;;;5.07;1.30;;;18.80;99.90;;;;;;4992936;28;20041;-69
2021/04/13 06:55:47;;;;;;;6.95;1.08;;;18.70;99.90;;;;;;4993893;28;20047;-70
2021/04/13 06:58:44;;;;;;;5.90;0.60;;;18.70;99.90;;;;;;4988307;28;20034;-70
2021/04/13 07:01:40;;;;;;;7.55;0.80;;;18.70;99.90;;;;;;5007962;28;20038;-70
2021/04/13 07:04:28;;;;;;;4.40;0.80;;;18.60;99.90;;;;;;4991625;28;20073;-69
2021/04/13 07:07:24;;;;;;;4.55;1.33;;;18.60;99.90;;;;;;4992331;28;20371;-70
2021/04/13 07:10:37;;;;;;;4.30;0.77;;;18.60;99.90;;;;;;4994698;28;20041;-69
2021/04/13 07:13:32;;;;;;;5.93;0.98;;;18.50;99.90;;;;;;4989801;28;21373;-70
2021/04/13 07:15:58;;;;;;;;;;;18.50;99.90;;;;;;4993637;28;20026;-70
2021/04/13 07:18:37;;;;;;;6.97;0.98;;;18.40;99.90;;;;;;4993288;28;19910;-70
2021/04/13 07:21:05;;;;;;;6.47;1.20;;;18.30;99.90;;;;;;4993071;28;20061;-71
2021/04/13 07:23:58;;;;;;;4.65;0.70;;;18.40;99.90;;;;;;4992738;28;20487;-72
2021/04/13 07:26:35;;;;;;;6.60;1.13;;;18.30;99.90;;;;;;4992465;28;20058;-71
2021/04/13 07:29:29;;;;;;;3.53;0.73;;;18.30;99.90;;;;;;4983408;28;20033;-71
2021/04/13 07:32:08;;;;;;;5.30;0.88;;;18.30;99.90;;;;;;4992870;28;20022;-72
2021/04/13 07:34:38;;;;;;;4.05;0.75;;;18.20;99.90;;;;;;4993063;28;20483;-72
2021/04/13 07:37:23;;;;;;;5.88;1.48;;;18.10;99.90;;;;;;4991579;28;20379;-72
2021/04/13 07:39:55;;;;;;;7.18;1.17;;;18.10;99.90;;;;;;4992990;28;20042;-71
2021/04/13 07:42:40;;;;;;;5.22;0.77;;;18.00;99.90;;;;;;4992105;28;20022;-71
2021/04/13 07:45:28;;;;;;;5.32;0.93;;;18.00;99.90;;;;;;4993801;28;20080;-71
2021/04/13 07:48:00;;;;;;;9.10;1.00;;;18.00;99.90;;;;;;4989877;28;20029;-71
2021/04/13 07:51:11;;;;;;;6.35;1.20;;;18.00;99.90;;;;;;4994227;28;20120;-71
2021/04/13 07:53:52;;;;;;;12.20;1.65;;;18.00;99.90;;;;;;4973731;28;20038;-71
2021/04/13 07:56:54;;;;;;;7.47;1.67;;;18.00;99.90;;;;;;4992647;28;20026;-69
2021/04/13 07:59:56;;;;;;;7.20;1.75;;;17.90;99.90;;;;;;4985475;28;20050;-71
2021/04/13 08:02:23;;;;;;;12.27;1.58;;;17.90;99.90;;;;;;4989153;28;20406;-70
2021/04/13 08:04:51;;;;;;;8.13;1.35;;;17.90;99.90;;;;;;4992811;28;20445;-71
2021/04/13 08:07:35;;;;;;;13.65;2.08;;;18.00;99.90;;;;;;4985221;28;20023;-70
2021/04/13 08:10:28;;;;;;;4.43;1.08;;;17.90;99.90;;;;;;4986977;28;20510;-71
2021/04/13 08:12:58;;;;;;;8.50;1.30;;;17.80;99.90;;;;;;5004532;28;20030;-70
2021/04/13 08:15:49;;;;;;;7.85;1.73;;;17.90;99.90;;;;;;4996345;28;20057;-71
2021/04/13 08:18:44;;;;;;;6.53;2.33;;;18.00;99.90;;;;;;4988062;28;20055;-73
2021/04/13 08:21:30;;;;;;;8.65;1.48;;;17.80;99.90;;;;;;4974034;28;20120;-71
2021/04/13 08:23:58;;;;;;;7.32;1.88;;;17.70;99.90;;;;;;4991343;28;20491;-72
2021/04/13 08:26:31;;;;;;;12.45;2.28;;;17.70;99.90;;;;;;4992909;28;20041;-71
2021/04/13 08:29:10;;;;;;;6.00;1.52;;;17.70;99.90;;;;;;4980067;28;20498;-72
2021/04/13 08:34:38;;;;;;;9.90;2.35;;;17.60;99.90;;;;;;4997808;28;20394;-71
2021/04/13 08:37:15;;;;;;;7.45;2.45;;;17.60;99.90;;;;;;5005300;28;20080;-72
2021/04/13 08:40:14;;;;;;;6.63;1.40;;;17.60;99.90;;;;;;4994152;28;20417;-72
2021/04/13 08:42:58;;;;;;;5.75;1.17;;;17.60;99.90;;;;;;4992367;28;20360;-72
2021/04/13 08:45:37;;;;;;;5.97;1.40;;;17.50;99.90;;;;;;4993898;28;20030;-72
2021/04/13 08:48:13;;;;;;;5.70;1.50;;;17.50;99.90;;;;;;4991885;28;20517;-71
2021/04/13 08:50:44;;;;;;;6.18;1.67;;;17.50;99.90;;;;;;4993548;28;20038;-72
2021/04/13 08:53:34;;;;;;;9.57;2.00;;;17.50;99.90;;;;;;4990484;28;20049;-71
2021/04/13 08:56:28;;;;;;;5.82;1.15;;;17.50;99.90;;;;;;5006746;28;20061;-72
2021/04/13 08:59:06;;;;;;;9.30;1.73;;;17.40;99.90;;;;;;4975874;28;20097;-72
2021/04/13 09:01:39;;;;;;;7.53;1.30;;;17.30;99.90;;;;;;4974479;28;20069;-72
2021/04/13 09:04:30;;;;;;;8.35;1.42;;;17.30;99.90;;;;;;4972807;28;20023;-72
2021/04/13 09:07:02;;;;;;;9.23;2.10;;;17.40;99.90;;;;;;4977527;28;20033;-72
2021/04/13 09:09:39;;;;;;;8.23;1.48;;;17.30;99.90;;;;;;4992184;28;20026;-72
2021/04/13 09:12:18;;;;;;;7.57;1.50;;;17.20;99.90;;;;;;4991748;28;20022;-72
2021/04/13 09:15:01;;;;;;;10.77;2.17;;;17.20;99.90;;;;;;4991431;28;20531;-72
2021/04/13 09:17:45;;;;;;;8.65;1.70;;;17.20;99.90;;;;;;4991939;28;20018;-72
2021/04/13 09:20:34;;;;;;;10.25;2.13;;;17.20;99.90;;;;;;4993634;28;20034;-72
2021/04/13 09:23:04;;;;;;;6.90;1.58;;;17.10;99.90;;;;;;4984397;28;20046;-71
2021/04/13 09:25:41;;;;;;;7.55;1.60;;;17.20;99.90;;;;;;4991050;28;20046;-71
2021/04/13 09:28:20;;;;;;;6.40;1.30;;;17.10;99.90;;;;;;4986535;28;20027;-71
2021/04/13 09:30:50;;;;;;;5.32;1.55;;;17.10;99.90;;;;;;4992035;28;20054;-72
2021/04/13 09:33:21;;;;;;;9.18;1.88;;;17.10;99.90;;;;;;4990491;28;20487;-71
2021/04/13 09:36:21;;;;;;;8.85;1.95;;;17.10;99.90;;;;;;4991194;28;20029;-71
2021/04/13 09:39:26;;;;;;;7.18;1.40;;;17.00;99.90;;;;;;4992508;28;20432;-71
2021/04/13 09:42:17;;;;;;;7.45;1.80;;;17.00;99.90;;;;;;4998320;28;20031;-71
2021/04/13 09:45:06;;;;;;;6.80;1.50;;;17.00;99.90;;;;;;4999951;28;20034;-71
2021/04/13 09:47:52;;;;;;;6.93;1.90;;;17.00;99.90;;;;;;4995309;28;20026;-71
2021/04/13 09:50:43;;;;;;;8.45;2.20;;;16.90;99.90;;;;;;4999020;28;20936;-70
2021/04/13 09:53:22;;;;;;;10.95;1.83;;;17.00;99.90;;;;;;4999405;28;20114;-69
2021/04/13 09:56:18;;;;;;;6.13;1.58;;;17.00;99.90;;;;;;5011293;28;20026;-69
2021/04/13 09:58:48;;;;;;;6.53;1.35;;;17.10;99.90;;;;;;4996362;28;20380;-72
2021/04/13 10:01:50;;;;;;;8.50;1.73;;;17.00;99.90;;;;;;4998496;28;20014;-72
2021/04/13 10:04:35;;;;;;;8.20;1.65;;;17.00;99.90;;;;;;4988969;28;20038;-71
2021/04/13 10:07:27;;;;;;;8.27;1.60;;;17.00;99.90;;;;;;4989804;28;20494;-71
2021/04/13 10:09:57;;;;;;;6.80;1.63;;;16.90;99.90;;;;;;4998315;28;20121;-71
2021/04/13 10:12:42;;;;;;;6.63;2.03;;;17.00;99.90;;;;;;4996064;28;20056;-72
2021/04/13 10:15:37;;;;;;;4.07;1.40;;;16.90;99.90;;;;;;4980304;28;20448;-73
2021/04/13 10:18:36;;;;;;;5.53;2.25;;;16.90;99.90;;;;;;4992669;28;20129;-71
2021/04/13 10:21:35;;;;;;;7.30;1.50;;;16.90;99.90;;;;;;4992149;28;20045;-71
2021/04/13 10:24:22;;;;;;;7.57;1.05;;;16.90;99.90;;;;;;4999289;28;20033;-71
2021/04/13 10:27:20;;;;;;;6.38;1.30;;;16.80;99.90;;;;;;4998832;28;20046;-71
2021/04/13 10:30:08;;;;;;;4.85;1.23;;;16.80;99.90;;;;;;4992456;28;20037;-72
2021/04/13 10:32:47;;;;;;;5.60;1.90;;;16.80;99.90;;;;;;4998823;28;20081;-72
2021/04/13 10:35:36;;;;;;;6.57;2.05;;;16.70;99.90;;;;;;4999116;28;20018;-72
2021/04/13 10:38:27;;;;;;;6.55;1.40;;;16.60;99.90;;;;;;4998356;28;20061;-72
2021/04/13 10:41:28;;;;;;;4.85;1.00;;;16.60;99.90;;;;;;4998749;28;20061;-72
2021/04/13 10:44:27;;;;;;;4.97;1.30;;;16.60;99.90;;;;;;4995150;28;20026;-71
2021/04/13 10:47:03;;;;;;;5.30;1.35;;;16.60;99.90;;;;;;4998529;28;20033;-71
2021/04/13 10:50:10;;;;;;;4.72;1.00;;;16.60;99.90;;;;;;4997130;28;20054;-72
2021/04/13 10:53:05;;;;;;;5.80;1.48;;;16.50;99.90;;;;;;4994995;28;20523;-71
2021/04/13 10:55:44;;;;;;;5.97;1.40;;;16.50;99.90;;;;;;4994447;28;20120;-71
2021/04/13 10:58:42;;;;;;;7.65;2.33;;;16.50;99.90;;;;;;4992684;28;20022;-72
2021/04/13 11:01:12;;;;;;;4.78;1.73;;;16.50;99.90;;;;;;4995561;28;20034;-72
2021/04/13 11:04:03;;;;;;;8.13;1.30;;;16.40;99.90;;;;;;4995571;28;20030;-72
2021/04/13 11:06:40;;;;;;;6.93;1.48;;;16.30;99.90;;;;;;4992477;28;20477;-72
2021/04/13 11:09:36;;;;;;;5.78;1.27;;;16.30;99.90;;;;;;4995179;28;20030;-71
2021/04/13 11:12:25;;;;;;;6.35;1.27;;;16.30;99.90;;;;;;4993203;28;20105;-73
2021/04/13 11:15:33;;;;;;;7.03;1.33;;;16.30;99.90;;;;;;4994794;28;20030;-73
2021/04/13 11:18:06;;;;;;;5.57;1.40;;;16.20;99.90;;;;;;4995106;28;20030;-72
2021/04/13 11:21:13;;;;;;;5.47;1.80;;;16.20;99.90;;;;;;4993947;28;20034;-72
2021/04/13 11:23:53;;;;;;;7.15;1.25;;;16.20;99.90;;;;;;4994811;28;20065;-72
2021/04/13 11:26:42;;;;;;;5.28;1.30;;;16.20;99.90;;;;;;4994335;28;20022;-72
2021/04/13 11:29:36;;;;;;;5.90;1.10;;;16.10;99.90;;;;;;4992594;28;20058;-72
2021/04/13 11:32:19;;;;;;;4.65;1.60;;;16.10;99.90;;;;;;4993527;28;20419;-72
2021/04/13 11:35:26;;;;;;;6.90;1.30;;;16.10;99.90;;;;;;4995076;28;20080;-72
2021/04/13 11:38:16;;;;;;;4.90;1.00;;;16.10;99.90;;;;;;4988764;28;20030;-71
2021/04/13 11:41:02;;;;;;;5.93;1.00;;;16.10;99.90;;;;;;4987911;28;20034;-72
2021/04/13 11:43:34;;;;;;;4.55;1.30;;;16.00;99.90;;;;;;4988438;28;20027;-72
2021/04/13 11:46:05;;;;;;;13.40;1.73;;;16.00;99.90;;;;;;4990091;28;20030;-72
2021/04/13 11:48:41;;;;;;;6.97;1.25;;;16.00;99.90;;;;;;4987907;28;20038;-71
2021/04/13 11:51:39;;;;;;;10.77;1.60;;;16.10;99.90;;;;;;4988808;28;20423;-71
2021/04/13 11:54:43;;;;;;;5.05;1.20;;;16.10;99.90;;;;;;4988057;28;20025;-72
2021/04/13 11:57:16;;;;;;;7.75;2.05;;;16.10;99.90;;;;;;4990017;28;20475;-72
2021/04/13 12:00:04;;;;;;;5.00;0.93;;;16.00;99.90;;;;;;4988367;28;20043;-72
2021/04/13 12:02:32;;;;;;;4.63;1.00;;;15.90;99.90;;;;;;4985633;28;20030;-72
2021/04/13 12:05:00;;;;;;;7.32;1.45;;;15.90;99.90;;;;;;4980976;28;20025;-72
2021/04/13 12:07:50;;;;;;;6.00;1.58;;;15.90;99.90;;;;;;4986479;28;20546;-72
2021/04/13 12:10:33;;;;;;;7.03;0.90;;;15.80;99.90;;;;;;4991516;28;20030;-72
2021/04/13 12:13:04;;;;;;;5.57;0.95;;;15.80;99.90;;;;;;4988502;28;20022;-72
2021/04/13 12:15:31;;;;;;;4.63;1.30;;;15.80;99.90;;;;;;4988367;28;20029;-72
2021/04/13 12:18:01;;;;;;;8.13;1.25;;;15.80;99.90;;;;;;5002445;28;20482;-72
2021/04/13 12:20:35;;;;;;;4.85;1.23;;;15.80;99.90;;;;;;4991020;28;20050;-72
2021/04/13 12:23:15;;;;;;;4.07;1.13;;;15.80;99.90;;;;;;4986178;28;20459;-71
2021/04/13 12:26:03;;;;;;;8.35;1.40;;;15.80;99.90;;;;;;4994954;28;20044;-71
2021/04/13 12:28:33;;;;;;;7.20;1.50;;;15.80;99.90;;;;;;4995159;28;20024;-72
2021/04/13 12:31:06;;;;;;;8.82;1.38;;;15.80;99.90;;;;;;4991998;28;20117;-72
2021/04/13 12:33:34;;;;;;;7.22;1.95;;;15.90;99.90;;;;;;4989389;28;20505;-72
2021/04/13 12:36:09;;;;;;;5.93;1.63;;;15.90;99.90;;;;;;4989689;28;20045;-72
2021/04/13 12:38:55;;;;;;;5.68;0.90;;;16.00;99.90;;;;;;4988698;28;20026;-72
2021/04/13 12:41:28;;;;;;;8.57;1.00;;;16.10;99.90;;;;;;4989413;28;20390;-71
2021/04/13 12:44:19;;;;;;;3.85;1.33;;;16.10;99.90;;;;;;4987875;28;20109;-71
2021/04/13 12:46:52;;;;;;;5.30;1.77;;;16.20;99.90;;;;;;4990706;28;20142;-71
2021/04/13 12:49:35;;;;;;;3.50;0.98;;;16.20;99.90;;;;;;4987575;28;20137;-71
2021/04/13 12:52:07;;;;;;;4.80;1.80;;;16.20;99.90;;;;;;4986976;28;20352;-72
2021/04/13 12:54:39;;;;;;;4.40;1.00;;;16.20;99.90;;;;;;4986988;28;20089;-72
2021/04/13 12:57:08;;;;;;;8.18;1.52;;;16.10;99.90;;;;;;5003920;28;20121;-72
2021/04/13 12:59:36;;;;;;;9.30;1.40;;;16.10;99.90;;;;;;4988204;28;20046;-72
2021/04/13 13:02:07;;;;;;;7.82;1.70;;;16.00;99.90;;;;;;4988626;28;20029;-71
2021/04/13 13:04:40;;;;;;;6.38;0.93;;;16.00;99.90;;;;;;4991154;28;20018;-71
2021/04/13 13:07:22;;;;;;;4.78;0.90;;;15.90;99.90;;;;;;4990768;28;20041;-72
2021/04/13 13:09:50;;;;;;;5.97;1.20;;;15.80;99.90;;;;;;5004310;28;20035;-72
2021/04/13 13:12:20;;;;;;;8.30;1.27;;;15.80;99.90;;;;;;4995290;28;20030;-72
2021/04/13 13:14:59;;;;;;;9.20;1.02;;;15.80;99.90;;;;;;4980616;28;20031;-71
2021/04/13 13:17:36;;;;;;;3.58;1.33;;;15.80;99.90;;;;;;4998454;28;20514;-72
2021/04/13 13:20:15;;;;;;;3.60;0.77;;;15.80;99.90;;;;;;4995218;28;20373;-71
2021/04/13 13:22:52;;;;;;;5.88;0.90;;;15.70;99.90;;;;;;4997609;28;20026;-71
2021/04/13 13:25:30;;;;;;;7.88;1.67;;;15.60;99.90;;;;;;4989350;28;20033;-72
2021/04/13 13:28:19;;;;;;;6.85;1.45;;;15.60;99.90;;;;;;4994711;28;20030;-71
2021/04/13 13:30:49;;;;;;;7.00;1.23;;;15.50;99.90;;;;;;4992351;28;20030;-72
2021/04/13 13:33:19;;;;;;;5.28;1.00;;;15.50;99.90;;;;;;4986701;28;20426;-71
2021/04/13 13:35:47;;;;;;;6.22;1.00;;;15.40;99.90;;;;;;4991910;28;20022;-71
2021/04/13 13:38:21;;;;;;;4.45;1.00;;;15.40;99.90;;;;;;4993939;28;20109;-71
2021/04/13 13:40:48;;;;;;;8.63;1.45;;;15.30;99.90;;;;;;4989463;28;20042;-71
2021/04/13 13:43:23;;;;;;;4.88;1.00;;;15.20;99.90;;;;;;5000526;28;20040;-71
2021/04/13 13:45:51;;;;;;;4.85;1.02;;;15.20;99.90;;;;;;4992527;28;20027;-71
2021/04/13 13:48:28;;;;;;;5.88;2.28;;;15.10;99.90;;;;;;4989668;28;20046;-71
2021/04/13 13:51:12;;;;;;;7.30;1.17;;;15.00;99.90;;;;;;4993028;28;20049;-71
2021/04/13 13:53:52;;;;;;;4.38;0.82;;;15.00;99.90;;;;;;4988378;28;20080;-71